createdAt,value
2022-12-26T00:01:28.099Z,4.80
2022-12-26T00:03:58.701Z,4.80
2022-12-26T00:06:28.956Z,4.80
2022-12-26T00:08:59.196Z,4.80
2022-12-26T00:11:29.076Z,4.80
2022-12-26T00:13:59.260Z,4.80
2022-12-26T00:16:28.408Z,4.80
2022-12-26T00:18:56.933Z,4.80
2022-12-26T00:21:27.247Z,4.80
2022-12-26T00:23:55.653Z,4.80
2022-12-26T00:26:27.180Z,4.80
2022-12-26T00:28:56.037Z,4.90
2022-12-26T00:31:26.742Z,4.70
2022-12-26T00:33:55.556Z,4.80
2022-12-26T00:36:26.093Z,4.70
2022-12-26T00:38:54.433Z,4.70
2022-12-26T00:41:24.892Z,4.70
2022-12-26T00:43:54.453Z,4.70
2022-12-26T00:46:28.514Z,4.70
2022-12-26T00:48:57.994Z,4.70
2022-12-26T00:51:26.299Z,4.70
2022-12-26T00:53:54.553Z,4.70
2022-12-26T00:56:24.161Z,4.70
2022-12-26T00:58:52.501Z,4.70
2022-12-26T01:01:23.444Z,4.70
2022-12-26T01:03:52.526Z,4.70
2022-12-26T01:06:20.810Z,4.70
2022-12-26T01:08:49.040Z,4.70
2022-12-26T01:11:38.715Z,4.70
2022-12-26T01:14:11.883Z,4.70
2022-12-26T01:16:40.731Z,4.70
2022-12-26T01:19:10.387Z,4.70
2022-12-26T01:21:38.864Z,4.70
2022-12-26T01:24:07.804Z,4.70
2022-12-26T01:26:36.140Z,4.70
2022-12-26T01:29:04.384Z,4.70
2022-12-26T01:31:34.054Z,4.70
2022-12-26T01:34:02.288Z,4.70
2022-12-26T01:36:30.525Z,4.70
2022-12-26T01:38:58.783Z,4.70
2022-12-26T01:41:28.095Z,4.70
2022-12-26T01:43:58.768Z,4.70
2022-12-26T01:46:35.844Z,4.80
2022-12-26T01:49:14.577Z,4.80
2022-12-26T01:51:46.237Z,4.80
2022-12-26T01:54:39.202Z,4.80
2022-12-26T01:57:08.239Z,4.80
2022-12-26T01:59:39.084Z,4.80
2022-12-26T02:02:09.631Z,4.90
2022-12-26T02:04:59.855Z,4.90
2022-12-26T02:07:28.476Z,4.80
2022-12-26T02:09:56.949Z,4.90
2022-12-26T02:12:34.407Z,4.90
2022-12-26T02:15:08.795Z,4.90
2022-12-26T02:17:39.024Z,4.90
2022-12-26T02:20:18.293Z,4.90
2022-12-26T02:23:25.246Z,4.90
2022-12-26T02:26:23.822Z,4.90
2022-12-26T02:29:20.610Z,4.90
2022-12-26T02:31:59.239Z,4.90
2022-12-26T02:34:37.496Z,4.90
2022-12-26T02:37:19.861Z,4.90
2022-12-26T02:40:03.979Z,4.80
2022-12-26T02:42:43.163Z,4.90
2022-12-26T02:45:37.225Z,4.90
2022-12-26T02:48:14.735Z,4.90
2022-12-26T02:51:12.406Z,4.80
2022-12-26T02:54:06.359Z,4.90
2022-12-26T02:56:57.512Z,4.80
2022-12-26T02:59:55.589Z,4.80
2022-12-26T03:02:48.469Z,4.80
2022-12-26T03:05:42.683Z,4.80
2022-12-26T03:08:37.123Z,4.80
2022-12-26T03:11:23.079Z,4.80
2022-12-26T03:13:53.482Z,4.80
2022-12-26T03:16:53.922Z,4.80
2022-12-26T03:19:28.472Z,4.80
2022-12-26T03:22:00.143Z,4.70
2022-12-26T03:24:50.077Z,4.80
2022-12-26T03:27:17.358Z,4.80
2022-12-26T03:30:03.041Z,4.80
2022-12-26T03:32:44.092Z,4.80
2022-12-26T03:35:13.494Z,4.70
2022-12-26T03:37:52.060Z,4.70
2022-12-26T03:40:50.648Z,4.70
2022-12-26T03:43:52.667Z,4.70
2022-12-26T03:46:50.128Z,4.70
2022-12-26T03:49:40.599Z,4.70
2022-12-26T03:52:33.992Z,4.70
2022-12-26T03:55:29.104Z,4.70
2022-12-26T03:58:24.808Z,4.70
2022-12-26T04:01:13.961Z,4.70
2022-12-26T04:04:02.576Z,4.70
2022-12-26T04:06:53.578Z,4.60
2022-12-26T04:09:42.969Z,4.60
2022-12-26T04:12:36.070Z,4.60
2022-12-26T04:15:26.103Z,4.60
2022-12-26T04:18:16.747Z,4.60
2022-12-26T04:20:54.257Z,4.60
2022-12-26T04:23:46.746Z,4.60
2022-12-26T04:26:40.462Z,4.60
2022-12-26T04:29:27.593Z,4.60
2022-12-26T04:32:21.871Z,4.70
2022-12-26T04:35:13.073Z,4.60
2022-12-26T04:38:02.163Z,4.60
2022-12-26T04:40:52.760Z,4.70
2022-12-26T04:43:49.753Z,4.70
2022-12-26T04:46:23.068Z,4.60
2022-12-26T04:49:10.591Z,4.60
2022-12-26T04:51:39.063Z,4.70
2022-12-26T04:54:08.001Z,4.70
2022-12-26T04:56:36.404Z,4.70
2022-12-26T04:59:05.177Z,4.70
2022-12-26T05:01:52.090Z,4.70
2022-12-26T05:04:38.451Z,4.70
2022-12-26T05:07:34.637Z,4.70
2022-12-26T05:10:03.119Z,4.70
2022-12-26T05:12:31.303Z,4.70
2022-12-26T05:14:59.550Z,4.70
2022-12-26T05:17:47.690Z,4.70
2022-12-26T05:20:44.622Z,4.80
2022-12-26T05:23:36.948Z,4.70
2022-12-26T05:26:23.760Z,4.70
2022-12-26T05:28:57.301Z,4.70
2022-12-26T05:31:31.117Z,4.70
2022-12-26T05:34:06.421Z,4.70
2022-12-26T05:36:39.568Z,4.70
2022-12-26T05:39:08.875Z,4.70
2022-12-26T05:41:37.294Z,4.80
2022-12-26T05:44:06.344Z,4.70
2022-12-26T05:46:34.934Z,4.80
2022-12-26T05:49:05.692Z,4.80
2022-12-26T05:51:34.547Z,4.80
2022-12-26T05:54:03.340Z,4.80
2022-12-26T05:56:31.619Z,4.80
2022-12-26T05:59:01.638Z,4.80
2022-12-26T06:01:31.238Z,4.80
2022-12-26T06:04:01.267Z,4.80
2022-12-26T06:06:31.096Z,4.80
2022-12-26T06:08:59.355Z,4.80
2022-12-26T06:11:28.126Z,4.80
2022-12-26T06:13:57.101Z,4.80
2022-12-26T06:16:25.633Z,4.80
2022-12-26T06:18:55.660Z,4.80
2022-12-26T06:21:24.287Z,4.80
2022-12-26T06:23:53.815Z,4.80
2022-12-26T06:26:22.078Z,4.80
2022-12-26T06:28:50.350Z,4.80
2022-12-26T06:31:21.474Z,4.80
2022-12-26T06:33:51.383Z,4.70
2022-12-26T06:36:22.504Z,4.80
2022-12-26T06:38:51.412Z,4.90
2022-12-26T06:41:22.609Z,4.80
2022-12-26T06:43:51.042Z,4.80
2022-12-26T06:46:21.468Z,4.80
2022-12-26T06:48:49.854Z,4.80
2022-12-26T06:51:20.113Z,4.80
2022-12-26T06:53:48.564Z,4.80
2022-12-26T06:56:18.379Z,4.80
2022-12-26T06:58:48.122Z,4.80
2022-12-26T07:01:19.236Z,4.80
2022-12-26T07:03:51.483Z,4.90
2022-12-26T07:06:24.114Z,4.90
2022-12-26T07:08:53.134Z,4.90
2022-12-26T07:11:22.781Z,4.90
2022-12-26T07:13:53.027Z,4.90
2022-12-26T07:16:21.653Z,4.90
2022-12-26T07:18:50.047Z,4.90
2022-12-26T07:21:18.380Z,4.90
2022-12-26T07:23:46.663Z,5.00
2022-12-26T07:26:15.005Z,5.00
2022-12-26T07:28:43.466Z,5.00
2022-12-26T07:31:17.437Z,5.00
2022-12-26T07:33:48.752Z,5.10
2022-12-26T07:36:17.665Z,5.10
2022-12-26T07:38:46.096Z,5.10
2022-12-26T07:41:32.049Z,5.10
2022-12-26T07:44:01.888Z,5.10
2022-12-26T07:46:31.732Z,5.10
2022-12-26T07:49:00.633Z,5.20
2022-12-26T07:51:28.956Z,5.20
2022-12-26T07:53:59.324Z,5.30
2022-12-26T07:56:27.687Z,5.30
2022-12-26T07:58:56.053Z,5.20
2022-12-26T08:01:24.646Z,5.20
2022-12-26T08:03:54.557Z,5.20
2022-12-26T08:06:23.101Z,5.20
2022-12-26T08:08:52.512Z,5.20
2022-12-26T08:11:23.624Z,5.30
2022-12-26T08:13:52.432Z,5.30
2022-12-26T08:16:21.886Z,5.20
2022-12-26T08:18:50.296Z,5.20
2022-12-26T08:21:20.265Z,5.30
2022-12-26T08:23:48.717Z,5.30
2022-12-26T08:26:22.671Z,5.30
2022-12-26T08:28:52.362Z,5.30
2022-12-26T08:31:21.952Z,5.30
2022-12-26T08:33:51.011Z,5.30
2022-12-26T08:36:20.861Z,5.30
2022-12-26T08:38:49.231Z,5.30
2022-12-26T08:41:18.529Z,5.40
2022-12-26T08:46:38.445Z,5.40
2022-12-26T08:49:06.799Z,5.40
2022-12-26T08:51:36.447Z,5.40
2022-12-26T08:54:05.343Z,5.40
2022-12-26T08:56:33.655Z,5.50
2022-12-26T08:59:01.833Z,5.50
2022-12-26T09:01:31.876Z,5.50
2022-12-26T09:04:06.501Z,5.60
2022-12-26T09:06:41.944Z,5.60
2022-12-26T09:09:12.834Z,5.70
2022-12-26T09:11:42.611Z,5.70
2022-12-26T09:14:14.180Z,5.80
2022-12-26T09:16:50.834Z,5.80
2022-12-26T09:19:29.849Z,5.80
2022-12-26T09:22:24.003Z,5.90
2022-12-26T09:25:00.647Z,5.90
2022-12-26T09:28:01.061Z,5.90
2022-12-26T09:30:49.229Z,5.80
2022-12-26T09:33:22.683Z,5.90
2022-12-26T09:36:58.985Z,5.90
2022-12-26T09:40:12.268Z,5.90
2022-12-26T09:42:54.341Z,6.10
2022-12-26T09:46:01.909Z,6.00
2022-12-26T09:49:24.731Z,6.00
2022-12-26T09:51:56.664Z,6.00
2022-12-26T09:54:32.165Z,6.10
2022-12-26T09:57:11.260Z,6.00
2022-12-26T09:59:53.986Z,6.00
2022-12-26T10:02:28.699Z,6.00
2022-12-26T10:05:02.624Z,6.10
2022-12-26T10:07:43.484Z,6.10
2022-12-26T10:10:19.457Z,6.10
2022-12-26T10:13:16.114Z,6.20
2022-12-26T10:15:51.331Z,6.20
2022-12-26T10:18:37.486Z,6.30
2022-12-26T10:21:32.443Z,6.30
2022-12-26T10:24:07.965Z,6.30
2022-12-26T10:26:50.102Z,6.40
2022-12-26T10:29:28.823Z,6.40
2022-12-26T10:32:11.400Z,6.40
2022-12-26T10:34:47.827Z,6.50
2022-12-26T10:37:27.781Z,6.50
2022-12-26T10:40:13.621Z,6.60
2022-12-26T10:42:48.367Z,6.60
2022-12-26T10:45:25.665Z,6.80
2022-12-26T10:47:59.457Z,6.70
2022-12-26T10:50:30.277Z,6.70
2022-12-26T10:53:00.065Z,6.80
2022-12-26T10:55:35.047Z,6.90
2022-12-26T10:58:15.485Z,7.00
2022-12-26T11:00:46.468Z,7.00
2022-12-26T11:03:17.237Z,7.10
2022-12-26T11:08:43.055Z,7.20
2022-12-26T11:11:21.070Z,7.30
2022-12-26T11:14:01.298Z,7.30
2022-12-26T11:16:32.698Z,7.30
2022-12-26T11:19:01.623Z,7.30
2022-12-26T11:21:32.292Z,7.30
2022-12-26T11:24:19.457Z,7.30
2022-12-26T11:26:48.370Z,7.40
2022-12-26T11:29:20.771Z,7.40
2022-12-26T11:31:54.881Z,7.40
2022-12-26T11:34:32.667Z,7.50
2022-12-26T11:37:01.487Z,7.60
2022-12-26T11:39:34.533Z,7.70
2022-12-26T11:42:11.382Z,7.70
2022-12-26T11:44:45.556Z,7.80
2022-12-26T11:47:16.259Z,7.80
2022-12-26T11:49:52.100Z,7.90
2022-12-26T11:52:37.739Z,7.90
2022-12-26T11:55:32.526Z,7.90
2022-12-26T11:58:06.483Z,7.90
2022-12-26T12:00:38.816Z,8.00
2022-12-26T12:03:16.318Z,8.10
2022-12-26T12:05:52.337Z,8.10
2022-12-26T12:08:38.519Z,8.10
2022-12-26T12:11:19.886Z,8.10
2022-12-26T12:14:03.281Z,8.00
2022-12-26T12:16:45.429Z,7.90
2022-12-26T12:19:41.643Z,7.80
2022-12-26T12:22:41.396Z,7.80
2022-12-26T12:25:31.808Z,7.70
2022-12-26T12:28:05.436Z,7.70
2022-12-26T12:30:40.953Z,7.60
2022-12-26T12:33:34.663Z,7.70
2022-12-26T12:36:09.846Z,7.80
2022-12-26T12:38:56.605Z,7.90
2022-12-26T12:41:45.690Z,8.00
2022-12-26T12:44:19.633Z,8.10
2022-12-26T12:46:56.534Z,8.10
2022-12-26T12:49:43.822Z,8.20
2022-12-26T12:52:24.779Z,8.20
2022-12-26T12:55:15.909Z,8.30
2022-12-26T12:57:51.022Z,8.30
2022-12-26T13:00:21.731Z,8.40
2022-12-26T13:02:56.659Z,8.40
2022-12-26T13:05:43.363Z,8.50
2022-12-26T13:08:18.045Z,8.50
2022-12-26T13:10:52.024Z,8.50
2022-12-26T13:13:27.245Z,8.40
2022-12-26T13:15:59.698Z,8.40
2022-12-26T13:18:34.257Z,8.50
2022-12-26T13:21:06.952Z,8.60
2022-12-26T13:23:58.661Z,8.60
2022-12-26T13:26:31.858Z,8.60
2022-12-26T13:29:05.306Z,8.70
2022-12-26T13:31:35.579Z,8.70
2022-12-26T13:34:05.744Z,8.70
2022-12-26T13:36:44.891Z,8.70
2022-12-26T13:39:38.945Z,8.70
2022-12-26T13:42:40.335Z,8.60
2022-12-26T13:45:58.181Z,8.60
2022-12-26T13:48:56.328Z,8.60
2022-12-26T13:51:46.701Z,8.70
2022-12-26T13:54:16.341Z,8.70
2022-12-26T13:57:35.467Z,8.70
2022-12-26T14:00:16.234Z,8.70
2022-12-26T14:03:18.447Z,8.70
2022-12-26T14:06:15.515Z,8.70
2022-12-26T14:08:58.260Z,8.80
2022-12-26T14:11:43.760Z,8.80
2022-12-26T14:14:22.152Z,8.80
2022-12-26T14:16:57.858Z,8.90
2022-12-26T14:19:39.052Z,8.80
2022-12-26T14:22:14.337Z,8.80
2022-12-26T14:24:58.362Z,8.70
2022-12-26T14:27:38.987Z,8.70
2022-12-26T14:30:20.238Z,8.70
2022-12-26T14:33:01.976Z,8.60
2022-12-26T14:35:35.124Z,8.70
2022-12-26T14:38:19.194Z,8.70
2022-12-26T14:41:02.833Z,8.70
2022-12-26T14:43:36.311Z,8.60
2022-12-26T14:46:07.194Z,8.60
2022-12-26T14:48:52.897Z,8.60
2022-12-26T14:51:45.548Z,8.60
2022-12-26T14:54:39.002Z,8.60
2022-12-26T14:57:43.339Z,8.60
2022-12-26T15:00:35.227Z,8.60
2022-12-26T15:03:44.695Z,8.60
2022-12-26T15:06:49.601Z,8.50
2022-12-26T15:09:51.563Z,8.50
2022-12-26T15:12:58.965Z,8.50
2022-12-26T15:15:53.230Z,8.50
2022-12-26T15:19:15.718Z,8.50
2022-12-26T15:22:13.305Z,8.60
2022-12-26T15:25:26.699Z,8.50
2022-12-26T15:28:22.815Z,8.50
2022-12-26T15:31:20.551Z,8.60
2022-12-26T15:33:53.809Z,8.60
2022-12-26T15:36:31.539Z,8.80
2022-12-26T15:39:06.870Z,8.80
2022-12-26T15:41:44.618Z,8.80
2022-12-26T15:44:27.825Z,8.80
2022-12-26T15:47:09.269Z,8.70
2022-12-26T15:49:50.066Z,8.80
2022-12-26T15:52:26.713Z,8.80
2022-12-26T15:55:21.501Z,8.80
2022-12-26T15:57:56.550Z,8.80
2022-12-26T16:00:27.175Z,8.90
2022-12-26T16:03:11.942Z,8.90
2022-12-26T16:05:48.792Z,8.80
2022-12-26T16:08:44.893Z,8.80
2022-12-26T16:11:20.054Z,8.70
2022-12-26T16:13:58.572Z,8.70
2022-12-26T16:16:35.485Z,8.70
2022-12-26T16:19:19.719Z,8.80
2022-12-26T16:22:09.238Z,8.70
2022-12-26T16:24:39.884Z,8.70
2022-12-26T16:27:10.571Z,8.80
2022-12-26T16:29:46.800Z,8.80
2022-12-26T16:32:19.418Z,8.80
2022-12-26T16:34:49.505Z,8.70
2022-12-26T16:37:22.652Z,8.60
2022-12-26T16:40:16.075Z,8.70
2022-12-26T16:42:45.457Z,8.70
2022-12-26T16:45:18.816Z,8.70
2022-12-26T16:47:47.969Z,8.70
2022-12-26T16:50:20.769Z,8.70
2022-12-26T16:52:49.566Z,8.70
2022-12-26T16:55:37.455Z,8.70
2022-12-26T16:58:21.000Z,8.80
2022-12-26T17:00:55.878Z,8.80
2022-12-26T17:03:30.024Z,8.90
2022-12-26T17:05:59.929Z,8.90
2022-12-26T17:08:28.442Z,8.90
2022-12-26T17:10:56.802Z,8.90
2022-12-26T17:13:27.742Z,8.90
2022-12-26T17:15:59.736Z,8.90
2022-12-26T17:18:46.148Z,8.90
2022-12-26T17:21:25.043Z,8.90
2022-12-26T17:24:21.244Z,8.80
2022-12-26T17:26:54.233Z,8.80
2022-12-26T17:29:51.194Z,8.90
2022-12-26T17:32:31.174Z,8.90
2022-12-26T17:35:02.935Z,8.90
2022-12-26T17:37:33.495Z,8.90
2022-12-26T17:40:08.339Z,9.00
2022-12-26T17:42:46.199Z,9.00
2022-12-26T17:45:20.183Z,9.20
2022-12-26T17:47:48.539Z,9.30
2022-12-26T17:50:16.816Z,9.30
2022-12-26T17:52:46.470Z,9.40
2022-12-26T17:55:19.860Z,9.40
2022-12-26T17:57:48.780Z,9.40
2022-12-26T18:00:20.069Z,9.40
2022-12-26T18:02:48.696Z,9.40
2022-12-26T18:05:17.960Z,9.30
2022-12-26T18:07:48.693Z,9.30
2022-12-26T18:10:22.708Z,9.40
2022-12-26T18:12:52.074Z,9.40
2022-12-26T18:15:20.718Z,9.40
2022-12-26T18:17:50.594Z,9.40
2022-12-26T18:20:21.098Z,9.40
2022-12-26T18:22:51.486Z,9.40
2022-12-26T18:25:22.191Z,9.40
2022-12-26T18:27:50.985Z,9.40
2022-12-26T18:30:21.607Z,9.50
2022-12-26T18:32:51.423Z,9.50
2022-12-26T18:35:20.199Z,9.50
2022-12-26T18:37:51.666Z,9.50
2022-12-26T18:40:29.317Z,9.50
2022-12-26T18:42:57.653Z,9.50
2022-12-26T18:45:26.130Z,9.50
2022-12-26T18:47:54.518Z,9.50
2022-12-26T18:50:23.214Z,9.50
2022-12-26T18:52:54.059Z,9.50
2022-12-26T18:55:22.859Z,9.50
2022-12-26T18:57:51.155Z,9.50
2022-12-26T19:00:21.072Z,9.50
2022-12-26T19:02:50.092Z,9.50
2022-12-26T19:05:20.919Z,9.50
2022-12-26T19:07:50.324Z,9.50
2022-12-26T19:10:22.520Z,9.50
2022-12-26T19:12:51.583Z,9.50
2022-12-26T19:15:20.055Z,9.50
2022-12-26T19:17:48.531Z,9.50
2022-12-26T19:20:19.921Z,9.50
2022-12-26T19:22:49.312Z,9.50
2022-12-26T19:25:20.039Z,9.50
2022-12-26T19:27:49.259Z,9.40
2022-12-26T19:30:19.070Z,9.40
2022-12-26T19:32:48.045Z,9.40
2022-12-26T19:35:16.880Z,9.40
2022-12-26T19:37:45.647Z,9.50
2022-12-26T19:40:18.377Z,9.50
2022-12-26T19:42:50.985Z,9.50
2022-12-26T19:45:19.694Z,9.50
2022-12-26T19:47:48.091Z,9.50
2022-12-26T19:50:16.396Z,9.50
2022-12-26T19:52:44.670Z,9.50
2022-12-26T19:55:13.681Z,9.50
2022-12-26T19:57:41.922Z,9.50
2022-12-26T20:00:13.448Z,9.50
2022-12-26T20:02:41.941Z,9.50
2022-12-26T20:05:11.144Z,9.50
2022-12-26T20:07:39.456Z,9.40
2022-12-26T20:10:08.233Z,9.40
2022-12-26T20:12:36.682Z,9.40
2022-12-26T20:15:05.614Z,9.30
2022-12-26T20:17:35.299Z,9.30
2022-12-26T20:20:03.807Z,9.30
2022-12-26T20:22:32.134Z,9.30
2022-12-26T20:25:00.437Z,9.30
2022-12-26T20:27:32.761Z,9.30
2022-12-26T20:30:01.051Z,9.30
2022-12-26T20:32:29.489Z,9.30
2022-12-26T20:34:59.116Z,9.20
2022-12-26T20:37:27.562Z,9.20
2022-12-26T20:39:59.206Z,9.30
2022-12-26T20:42:27.650Z,9.30
2022-12-26T20:44:58.277Z,9.30
2022-12-26T20:47:26.564Z,9.30
2022-12-26T20:49:54.909Z,9.30
2022-12-26T20:52:24.616Z,9.30
2022-12-26T20:54:53.072Z,9.30
2022-12-26T20:57:21.405Z,9.30
2022-12-26T20:59:50.061Z,9.20
2022-12-26T21:02:18.418Z,9.20
2022-12-26T21:04:46.938Z,9.20
2022-12-26T21:07:15.237Z,9.20
2022-12-26T21:09:46.412Z,9.20
2022-12-26T21:12:15.303Z,9.30
2022-12-26T21:14:43.671Z,9.30
2022-12-26T21:17:12.117Z,9.30
2022-12-26T21:19:40.439Z,9.30
2022-12-26T21:22:08.693Z,9.30
2022-12-26T21:24:37.221Z,9.30
2022-12-26T21:27:06.914Z,9.30
2022-12-26T21:29:36.282Z,9.30
2022-12-26T21:32:05.468Z,9.30
2022-12-26T21:34:35.447Z,9.30
2022-12-26T21:37:21.370Z,9.30
2022-12-26T21:39:50.710Z,9.20
2022-12-26T21:42:20.681Z,9.20
2022-12-26T21:44:49.268Z,9.20
2022-12-26T21:47:17.531Z,9.20
2022-12-26T21:49:45.828Z,9.20
2022-12-26T21:52:14.105Z,9.20
2022-12-26T21:55:00.210Z,9.20
2022-12-26T21:57:30.730Z,9.20
2022-12-26T22:00:00.406Z,9.20
2022-12-26T22:02:48.638Z,9.10
2022-12-26T22:05:21.689Z,9.10
2022-12-26T22:07:54.200Z,9.10
2022-12-26T22:10:40.391Z,9.10
2022-12-26T22:13:10.600Z,9.10
2022-12-26T22:15:59.996Z,9.10
2022-12-26T22:18:28.437Z,9.00
2022-12-26T22:20:56.703Z,9.00
2022-12-26T22:23:28.168Z,8.90
2022-12-26T22:25:56.979Z,8.90
2022-12-26T22:28:29.103Z,8.80
2022-12-26T22:30:57.674Z,8.80
2022-12-26T22:33:26.203Z,8.70
2022-12-26T22:35:54.596Z,8.70
2022-12-26T22:38:23.677Z,8.60
2022-12-26T22:40:56.610Z,8.60
2022-12-26T22:43:26.922Z,8.60
2022-12-26T22:45:55.852Z,8.50
2022-12-26T22:48:24.955Z,8.50
2022-12-26T22:50:54.729Z,8.40
2022-12-26T22:53:24.756Z,8.30
2022-12-26T22:55:59.040Z,8.30
2022-12-26T22:58:30.322Z,8.20
2022-12-26T23:00:59.358Z,8.30
2022-12-26T23:03:29.036Z,8.30
2022-12-26T23:05:57.872Z,8.40
2022-12-26T23:08:28.154Z,8.50
2022-12-26T23:10:58.679Z,8.50
2022-12-26T23:13:29.283Z,8.50
2022-12-26T23:16:01.785Z,8.60
2022-12-26T23:18:53.744Z,8.60
2022-12-26T23:21:43.058Z,8.70
2022-12-26T23:24:17.072Z,8.60
2022-12-26T23:26:48.183Z,8.60
2022-12-26T23:29:51.759Z,8.60
2022-12-26T23:32:20.199Z,8.60
2022-12-26T23:34:48.470Z,8.50
2022-12-26T23:37:16.887Z,8.50
2022-12-26T23:39:45.143Z,8.50
2022-12-26T23:42:13.381Z,8.50
2022-12-26T23:44:43.048Z,8.50
2022-12-26T23:47:11.402Z,8.50
2022-12-26T23:49:39.624Z,8.50
2022-12-26T23:52:08.085Z,8.60
2022-12-26T23:54:36.397Z,8.60
2022-12-26T23:57:04.772Z,8.60
2022-12-26T23:59:33.028Z,8.60
